createdAt,value
2022-08-24T00:01:34.268Z,20.78
2022-08-24T00:04:16.221Z,20.74
2022-08-24T00:06:59.108Z,20.66
2022-08-24T00:09:38.666Z,20.67
2022-08-24T00:12:19.192Z,20.66
2022-08-24T00:15:01.815Z,20.60
2022-08-24T00:17:43.244Z,20.55
2022-08-24T00:20:22.587Z,20.52
2022-08-24T00:23:03.126Z,20.45
2022-08-24T00:25:45.861Z,20.40
2022-08-24T00:28:27.327Z,20.37
2022-08-24T00:31:08.141Z,20.32
2022-08-24T00:33:48.036Z,20.26
2022-08-24T00:36:28.494Z,20.25
2022-08-24T00:39:12.106Z,20.14
2022-08-24T00:41:51.887Z,20.11
2022-08-24T00:44:32.018Z,20.07
2022-08-24T00:47:16.227Z,20.07
2022-08-24T00:50:01.149Z,20.04
2022-08-24T00:52:43.627Z,19.99
2022-08-24T00:55:29.437Z,19.97
2022-08-24T00:58:11.183Z,19.92
2022-08-24T01:01:19.658Z,19.88
2022-08-24T01:04:00.401Z,19.82
2022-08-24T01:06:40.088Z,19.80
2022-08-24T01:09:19.901Z,19.78
2022-08-24T01:11:58.606Z,19.77
2022-08-24T01:14:37.060Z,19.73
2022-08-24T01:17:38.895Z,19.70
2022-08-24T01:20:23.326Z,19.66
2022-08-24T01:23:08.269Z,19.67
2022-08-24T01:25:47.751Z,19.61
2022-08-24T01:28:27.862Z,19.56
2022-08-24T01:31:07.764Z,19.50
2022-08-24T01:33:50.513Z,19.49
2022-08-24T01:36:34.910Z,19.44
2022-08-24T01:39:17.921Z,19.43
2022-08-24T01:41:58.224Z,19.42
2022-08-24T01:44:41.727Z,19.40
2022-08-24T01:47:22.198Z,19.39
2022-08-24T01:50:02.540Z,19.36
2022-08-24T01:53:04.451Z,19.36
2022-08-24T01:55:44.746Z,19.33
2022-08-24T01:58:25.515Z,19.31
2022-08-24T02:01:05.332Z,19.30
2022-08-24T02:03:44.932Z,19.31
2022-08-24T02:06:27.216Z,19.29
2022-08-24T02:09:08.116Z,19.25
2022-08-24T02:11:46.461Z,19.24
2022-08-24T02:14:28.422Z,19.25
2022-08-24T02:17:10.842Z,19.25
2022-08-24T02:19:52.302Z,19.24
2022-08-24T02:22:35.551Z,19.29
2022-08-24T02:25:16.769Z,19.21
2022-08-24T02:27:56.456Z,19.20
2022-08-24T02:30:36.701Z,19.15
2022-08-24T02:33:19.641Z,19.13
2022-08-24T02:35:59.282Z,19.08
2022-08-24T02:38:40.511Z,19.06
2022-08-24T02:41:27.075Z,18.98
2022-08-24T02:44:09.950Z,18.99
2022-08-24T02:46:52.946Z,18.99
2022-08-24T02:49:33.584Z,18.89
2022-08-24T02:52:13.418Z,18.95
2022-08-24T02:54:53.295Z,18.93
2022-08-24T02:57:38.694Z,18.92
2022-08-24T03:00:22.266Z,18.91
2022-08-24T03:03:06.973Z,18.89
2022-08-24T03:05:48.468Z,18.80
2022-08-24T03:08:28.309Z,18.82
2022-08-24T03:11:09.745Z,18.80
2022-08-24T03:13:50.477Z,18.78
2022-08-24T03:16:31.564Z,18.75
2022-08-24T03:19:12.331Z,18.73
2022-08-24T03:21:53.561Z,18.68
2022-08-24T03:24:33.493Z,18.67
2022-08-24T03:27:13.465Z,18.64
2022-08-24T03:29:53.084Z,18.54
2022-08-24T03:32:34.555Z,18.60
2022-08-24T03:35:15.281Z,18.57
2022-08-24T03:37:55.708Z,18.55
2022-08-24T03:40:37.736Z,18.54
2022-08-24T03:43:33.132Z,18.51
2022-08-24T03:46:13.826Z,18.48
2022-08-24T03:48:59.111Z,18.42
2022-08-24T03:51:39.378Z,18.42
2022-08-24T03:54:20.239Z,18.39
2022-08-24T03:56:59.953Z,18.34
2022-08-24T03:59:46.347Z,18.24
2022-08-24T04:02:32.758Z,18.26
2022-08-24T04:05:14.176Z,18.19
2022-08-24T04:07:57.198Z,18.17
2022-08-24T04:10:37.069Z,18.14
2022-08-24T04:13:18.068Z,18.16
2022-08-24T04:16:05.513Z,18.14
2022-08-24T04:18:45.704Z,18.11
2022-08-24T04:21:29.408Z,18.08
2022-08-24T04:24:10.379Z,18.09
2022-08-24T04:26:49.852Z,18.03
2022-08-24T04:29:29.653Z,18.04
2022-08-24T04:32:10.584Z,18.03
2022-08-24T04:34:51.252Z,18.03
2022-08-24T04:37:32.705Z,18.03
2022-08-24T04:40:13.859Z,18.02
2022-08-24T04:43:21.740Z,18.00
2022-08-24T04:46:01.081Z,18.00
2022-08-24T04:48:44.413Z,17.97
2022-08-24T04:51:24.917Z,17.96
2022-08-24T04:54:07.247Z,17.95
2022-08-24T04:56:47.864Z,17.91
2022-08-24T04:59:27.915Z,18.00
2022-08-24T05:02:08.234Z,17.95
2022-08-24T05:04:48.224Z,17.96
2022-08-24T05:07:29.902Z,17.92
2022-08-24T05:10:11.304Z,17.99
2022-08-24T05:12:51.577Z,18.02
2022-08-24T05:15:31.711Z,18.02
2022-08-24T05:18:11.879Z,18.03
2022-08-24T05:20:52.434Z,18.06
2022-08-24T05:23:38.964Z,18.07
2022-08-24T05:26:25.341Z,18.03
2022-08-24T05:29:06.303Z,18.05
2022-08-24T05:32:00.717Z,18.20
2022-08-24T05:34:41.879Z,18.22
2022-08-24T05:37:21.787Z,18.30
2022-08-24T05:40:21.233Z,18.35
2022-08-24T05:43:05.476Z,18.39
2022-08-24T05:45:47.576Z,18.47
2022-08-24T05:48:30.135Z,18.51
2022-08-24T05:51:12.933Z,18.54
2022-08-24T05:54:06.335Z,18.64
2022-08-24T05:57:04.346Z,18.71
2022-08-24T05:59:49.578Z,18.77
2022-08-24T06:02:30.499Z,18.85
2022-08-24T06:05:31.264Z,18.97
2022-08-24T06:08:11.304Z,19.01
2022-08-24T06:10:52.179Z,19.11
2022-08-24T06:13:33.252Z,19.18
2022-08-24T06:16:21.997Z,19.29
2022-08-24T06:19:03.075Z,19.40
2022-08-24T06:21:43.494Z,19.51
2022-08-24T06:24:45.208Z,19.62
2022-08-24T06:27:26.246Z,19.71
2022-08-24T06:30:10.444Z,19.78
2022-08-24T06:33:10.311Z,19.92
2022-08-24T06:35:54.510Z,20.02
2022-08-24T06:38:37.573Z,20.11
2022-08-24T06:41:17.904Z,20.24
2022-08-24T06:44:10.550Z,20.37
2022-08-24T06:47:12.308Z,20.49
2022-08-24T06:49:52.726Z,20.63
2022-08-24T06:52:35.523Z,20.82
2022-08-24T06:55:15.455Z,20.94
2022-08-24T06:57:55.617Z,21.08
2022-08-24T07:00:35.190Z,21.26
2022-08-24T07:03:35.749Z,21.37
2022-08-24T07:06:32.031Z,21.54
2022-08-24T07:09:14.623Z,21.67
2022-08-24T07:11:54.568Z,21.80
2022-08-24T07:14:32.911Z,21.93
2022-08-24T07:17:17.911Z,22.05
2022-08-24T07:20:18.383Z,22.20
2022-08-24T07:23:19.559Z,22.35
2022-08-24T07:26:06.858Z,22.48
2022-08-24T07:28:49.814Z,22.59
2022-08-24T07:31:35.132Z,22.74
2022-08-24T07:34:31.172Z,22.91
2022-08-24T07:37:11.639Z,23.08
2022-08-24T07:39:56.997Z,23.28
2022-08-24T07:42:37.337Z,23.47
2022-08-24T07:45:30.123Z,23.59
2022-08-24T07:48:12.709Z,23.77
2022-08-24T07:50:59.880Z,23.98
2022-08-24T07:53:53.094Z,24.16
2022-08-24T07:56:40.321Z,24.44
2022-08-24T07:59:22.710Z,24.73
2022-08-24T08:02:08.142Z,24.98
2022-08-24T08:04:48.852Z,25.36
2022-08-24T08:07:28.700Z,25.65
2022-08-24T08:10:11.141Z,25.61
2022-08-24T08:12:51.533Z,26.06
2022-08-24T08:15:31.785Z,26.32
2022-08-24T08:18:21.220Z,26.27
2022-08-24T08:21:02.940Z,26.58
2022-08-24T08:24:03.121Z,27.09
2022-08-24T08:26:51.406Z,26.94
2022-08-24T08:29:43.981Z,26.99
2022-08-24T08:32:26.595Z,27.38
2022-08-24T08:35:07.292Z,27.56
2022-08-24T08:37:49.283Z,27.39
2022-08-24T08:40:43.296Z,27.53
2022-08-24T08:43:41.742Z,28.18
2022-08-24T08:46:38.650Z,28.49
2022-08-24T08:49:46.915Z,28.55
2022-08-24T08:52:37.216Z,28.74
2022-08-24T08:55:29.334Z,28.46
2022-08-24T08:58:24.600Z,28.34
2022-08-24T09:01:14.247Z,28.36
2022-08-24T09:04:12.751Z,28.38
2022-08-24T09:07:15.645Z,28.84
2022-08-24T09:10:12.528Z,28.64
2022-08-24T09:13:05.536Z,28.50
2022-08-24T09:16:40.482Z,28.82
2022-08-24T09:19:32.138Z,29.24
2022-08-24T09:22:17.319Z,29.10
2022-08-24T09:25:06.903Z,29.66
2022-08-24T09:28:16.082Z,29.37
2022-08-24T09:31:23.329Z,30.10
2022-08-24T09:34:18.264Z,29.47
2022-08-24T09:37:05.131Z,29.60
2022-08-24T09:39:59.874Z,30.37
2022-08-24T09:43:10.297Z,30.77
2022-08-24T09:46:23.743Z,30.86
2022-08-24T09:49:18.791Z,31.11
2022-08-24T09:52:22.556Z,31.22
2022-08-24T09:55:33.460Z,31.06
2022-08-24T09:58:19.983Z,31.07
2022-08-24T10:01:09.424Z,30.93
2022-08-24T10:03:57.110Z,31.57
2022-08-24T10:06:44.221Z,32.46
2022-08-24T10:09:54.983Z,32.39
2022-08-24T10:12:54.169Z,32.42
2022-08-24T10:15:41.024Z,32.62
2022-08-24T10:18:35.864Z,32.23
2022-08-24T10:21:21.976Z,32.39
2022-08-24T10:24:14.269Z,32.68
2022-08-24T10:27:09.408Z,33.01
2022-08-24T10:30:27.820Z,33.08
2022-08-24T10:33:19.387Z,33.19
2022-08-24T10:36:11.185Z,33.12
2022-08-24T10:39:10.090Z,33.59
2022-08-24T10:42:10.570Z,33.62
2022-08-24T10:44:56.319Z,33.28
2022-08-24T10:47:37.675Z,33.12
2022-08-24T10:50:39.375Z,33.25
2022-08-24T10:53:24.193Z,33.50
2022-08-24T10:56:08.933Z,33.23
2022-08-24T10:58:58.840Z,33.72
2022-08-24T11:01:39.804Z,34.02
2022-08-24T11:04:27.833Z,33.89
2022-08-24T11:07:11.513Z,33.98
2022-08-24T11:09:54.003Z,34.30
2022-08-24T11:12:33.946Z,33.51
2022-08-24T11:15:23.765Z,33.35
2022-08-24T11:18:15.486Z,33.79
2022-08-24T11:20:55.132Z,34.35
2022-08-24T11:23:37.816Z,34.38
2022-08-24T11:26:22.695Z,34.91
2022-08-24T11:29:05.624Z,35.04
2022-08-24T11:31:50.338Z,34.30
2022-08-24T11:34:37.980Z,34.96
2022-08-24T11:37:20.938Z,34.97
2022-08-24T11:40:05.961Z,34.67
2022-08-24T11:43:00.253Z,34.95
2022-08-24T11:45:55.216Z,34.97
2022-08-24T11:48:44.290Z,35.23
2022-08-24T11:51:35.513Z,35.74
2022-08-24T11:54:24.556Z,36.05
2022-08-24T11:57:09.248Z,35.91
2022-08-24T11:59:54.073Z,35.81
2022-08-24T12:02:41.372Z,35.27
2022-08-24T12:05:26.876Z,35.34
2022-08-24T12:08:15.202Z,34.79
2022-08-24T12:11:23.821Z,35.64
2022-08-24T12:14:06.659Z,35.51
2022-08-24T12:16:51.056Z,35.35
2022-08-24T12:19:32.408Z,35.53
2022-08-24T12:22:16.386Z,34.79
2022-08-24T12:24:58.380Z,35.54
2022-08-24T12:27:38.793Z,34.24
2022-08-24T12:30:18.757Z,34.93
2022-08-24T12:33:02.497Z,35.42
2022-08-24T12:35:45.522Z,35.71
2022-08-24T12:38:27.465Z,35.97
2022-08-24T12:41:17.798Z,34.80
2022-08-24T12:44:03.420Z,35.60
2022-08-24T12:46:44.617Z,36.31
2022-08-24T12:49:41.488Z,36.05
2022-08-24T12:52:36.927Z,36.45
2022-08-24T12:55:26.268Z,36.65
2022-08-24T12:58:31.625Z,35.78
2022-08-24T13:01:13.105Z,36.30
2022-08-24T13:04:06.292Z,36.52
2022-08-24T13:06:50.961Z,36.17
2022-08-24T13:09:34.337Z,35.16
2022-08-24T13:12:50.389Z,35.91
2022-08-24T13:16:00.569Z,35.98
2022-08-24T13:19:19.700Z,35.67
2022-08-24T13:22:22.221Z,36.10
2022-08-24T13:25:20.344Z,35.62
2022-08-24T13:28:08.403Z,35.68
2022-08-24T13:31:04.102Z,35.42
2022-08-24T13:33:48.228Z,35.84
2022-08-24T13:37:05.856Z,34.56
2022-08-24T13:40:08.776Z,34.98
2022-08-24T13:43:12.163Z,34.75
2022-08-24T13:45:58.243Z,35.07
2022-08-24T13:48:58.531Z,34.95
2022-08-24T13:51:45.040Z,34.66
2022-08-24T13:54:28.422Z,34.25
2022-08-24T13:57:26.559Z,33.91
2022-08-24T14:00:39.936Z,34.09
2022-08-24T14:03:55.100Z,33.28
2022-08-24T14:06:39.014Z,33.05
2022-08-24T14:09:36.240Z,33.02
2022-08-24T14:12:35.092Z,32.72
2022-08-24T14:15:29.577Z,32.79
2022-08-24T14:18:14.640Z,32.26
2022-08-24T14:21:02.073Z,32.22
2022-08-24T14:23:57.773Z,31.88
2022-08-24T14:27:17.630Z,31.79
2022-08-24T14:30:38.671Z,31.59
2022-08-24T14:33:29.352Z,31.60
2022-08-24T14:36:15.376Z,31.47
2022-08-24T14:39:03.824Z,31.53
2022-08-24T14:41:53.752Z,31.33
2022-08-24T14:44:51.613Z,31.05
2022-08-24T14:47:41.784Z,31.34
2022-08-24T14:50:26.204Z,31.21
2022-08-24T14:53:42.227Z,31.20
2022-08-24T14:56:47.959Z,31.14
2022-08-24T14:59:40.299Z,30.92
2022-08-24T15:02:59.437Z,30.90
2022-08-24T15:06:25.345Z,30.87
2022-08-24T15:09:11.540Z,30.84
2022-08-24T15:11:55.709Z,30.78
2022-08-24T15:14:39.308Z,30.83
2022-08-24T15:17:22.625Z,30.76
2022-08-24T15:20:09.003Z,30.57
2022-08-24T15:22:56.254Z,30.66
2022-08-24T15:25:40.759Z,30.62
2022-08-24T15:28:26.107Z,30.55
2022-08-24T15:31:11.545Z,30.47
2022-08-24T15:33:56.507Z,30.34
2022-08-24T15:36:35.761Z,30.34
2022-08-24T15:39:30.408Z,30.38
2022-08-24T15:42:13.345Z,30.30
2022-08-24T15:45:12.500Z,30.20
2022-08-24T15:47:53.028Z,30.22
2022-08-24T15:50:34.922Z,30.20
2022-08-24T15:53:33.568Z,30.25
2022-08-24T15:56:35.820Z,30.17
2022-08-24T15:59:28.121Z,30.14
2022-08-24T16:02:30.407Z,29.99
2022-08-24T16:05:18.581Z,29.96
2022-08-24T16:08:13.401Z,29.92
2022-08-24T16:10:58.340Z,29.93
2022-08-24T16:13:43.703Z,29.90
2022-08-24T16:16:35.168Z,29.81
2022-08-24T16:19:24.229Z,29.79
2022-08-24T16:22:08.974Z,29.81
2022-08-24T16:25:10.035Z,29.78
2022-08-24T16:27:57.487Z,29.63
2022-08-24T16:30:45.104Z,29.64
2022-08-24T16:33:45.784Z,29.57
2022-08-24T16:36:27.694Z,29.49
2022-08-24T16:39:12.128Z,29.47
2022-08-24T16:41:52.235Z,29.44
2022-08-24T16:44:36.439Z,29.40
2022-08-24T16:47:18.264Z,29.34
2022-08-24T16:49:58.912Z,29.35
2022-08-24T16:52:38.614Z,29.27
2022-08-24T16:55:18.565Z,29.22
2022-08-24T16:58:00.502Z,29.16
2022-08-24T17:00:41.943Z,29.13
2022-08-24T17:03:24.709Z,29.06
2022-08-24T17:06:04.195Z,28.98
2022-08-24T17:08:43.879Z,28.93
2022-08-24T17:11:23.670Z,28.84
2022-08-24T17:14:06.916Z,28.82
2022-08-24T17:16:45.308Z,28.71
2022-08-24T17:19:24.754Z,28.57
2022-08-24T17:22:06.670Z,28.28
2022-08-24T17:24:47.066Z,28.14
2022-08-24T17:27:30.713Z,27.92
2022-08-24T17:30:11.807Z,27.77
2022-08-24T17:32:52.355Z,27.52
2022-08-24T17:35:31.547Z,27.31
2022-08-24T17:38:11.591Z,27.23
2022-08-24T17:40:53.106Z,27.16
2022-08-24T17:43:34.547Z,27.02
2022-08-24T17:46:16.268Z,27.03
2022-08-24T17:48:59.679Z,26.95
2022-08-24T17:51:40.106Z,26.78
2022-08-24T17:54:21.807Z,26.65
2022-08-24T17:57:01.195Z,26.61
2022-08-24T17:59:41.131Z,26.53
2022-08-24T18:02:20.771Z,26.52
2022-08-24T18:05:00.736Z,26.66
2022-08-24T18:07:53.045Z,26.78
2022-08-24T18:10:33.386Z,26.80
2022-08-24T18:13:15.214Z,26.80
2022-08-24T18:15:55.924Z,26.83
2022-08-24T18:18:35.749Z,26.83
2022-08-24T18:21:15.634Z,26.78
2022-08-24T18:23:55.300Z,26.77
2022-08-24T18:26:35.284Z,26.69
2022-08-24T18:29:17.909Z,26.67
2022-08-24T18:32:01.314Z,26.65
2022-08-24T18:34:42.942Z,26.57
2022-08-24T18:37:34.876Z,26.50
2022-08-24T18:40:21.077Z,26.48
2022-08-24T18:43:03.267Z,26.47
2022-08-24T18:45:43.193Z,26.39
2022-08-24T18:48:25.008Z,26.39
2022-08-24T18:51:05.259Z,26.28
2022-08-24T18:53:48.339Z,26.28
2022-08-24T18:56:30.777Z,26.25
2022-08-24T18:59:12.364Z,26.13
2022-08-24T19:02:10.276Z,25.99
2022-08-24T19:04:50.567Z,25.96
2022-08-24T19:07:33.074Z,25.91
2022-08-24T19:10:15.354Z,25.86
2022-08-24T19:12:56.940Z,25.71
2022-08-24T19:15:40.358Z,25.67
2022-08-24T19:18:23.802Z,25.60
2022-08-24T19:21:04.239Z,25.54
2022-08-24T19:23:43.909Z,25.52
2022-08-24T19:26:25.681Z,25.52
2022-08-24T19:29:05.289Z,25.42
2022-08-24T19:31:44.725Z,25.40
2022-08-24T19:34:24.553Z,25.34
2022-08-24T19:37:07.628Z,25.25
2022-08-24T19:40:11.713Z,25.14
2022-08-24T19:42:53.675Z,25.18
2022-08-24T19:46:05.260Z,25.12
2022-08-24T19:48:44.453Z,25.05
2022-08-24T19:51:26.748Z,25.02
2022-08-24T19:54:21.792Z,24.96
2022-08-24T19:57:02.256Z,24.88
2022-08-24T19:59:43.127Z,24.88
2022-08-24T20:02:25.367Z,24.75
2022-08-24T20:05:05.076Z,24.75
2022-08-24T20:07:45.392Z,24.66
2022-08-24T20:10:28.030Z,24.61
2022-08-24T20:13:10.300Z,24.59
2022-08-24T20:15:50.407Z,24.58
2022-08-24T20:18:32.249Z,24.49
2022-08-24T20:21:13.545Z,24.45
2022-08-24T20:23:55.268Z,24.39
2022-08-24T20:26:39.278Z,24.38
2022-08-24T20:29:21.210Z,24.36
2022-08-24T20:32:01.261Z,24.32
2022-08-24T20:34:41.795Z,24.31
2022-08-24T20:37:23.986Z,24.27
2022-08-24T20:40:08.306Z,24.19
2022-08-24T20:42:47.628Z,24.15
2022-08-24T20:45:38.276Z,24.15
2022-08-24T20:48:27.122Z,24.05
2022-08-24T20:51:08.885Z,24.07
2022-08-24T20:53:49.502Z,24.05
2022-08-24T20:56:33.050Z,24.02
2022-08-24T20:59:13.183Z,23.96
2022-08-24T21:01:55.848Z,23.84
2022-08-24T21:04:35.084Z,23.89
2022-08-24T21:07:14.956Z,23.80
2022-08-24T21:09:57.358Z,23.78
2022-08-24T21:12:50.360Z,23.75
2022-08-24T21:15:30.909Z,23.67
2022-08-24T21:18:10.873Z,23.67
2022-08-24T21:21:03.375Z,23.69
2022-08-24T21:23:44.724Z,23.61
2022-08-24T21:26:27.784Z,23.51
2022-08-24T21:29:08.504Z,23.54
2022-08-24T21:32:02.903Z,23.51
2022-08-24T21:34:45.094Z,23.44
2022-08-24T21:37:26.152Z,23.39
2022-08-24T21:40:11.007Z,23.37
2022-08-24T21:42:50.804Z,23.34
2022-08-24T21:45:32.646Z,23.24
2022-08-24T21:48:13.550Z,23.10
2022-08-24T21:50:53.920Z,23.14
2022-08-24T21:53:33.464Z,23.12
2022-08-24T21:56:14.588Z,23.02
2022-08-24T21:59:01.171Z,23.07
2022-08-24T22:01:40.840Z,23.06
2022-08-24T22:04:20.202Z,22.98
2022-08-24T22:07:02.372Z,22.99
2022-08-24T22:09:45.194Z,22.94
2022-08-24T22:12:23.284Z,22.88
2022-08-24T22:15:02.709Z,22.85
2022-08-24T22:17:43.440Z,22.79
2022-08-24T22:20:24.670Z,22.69
2022-08-24T22:23:05.632Z,22.64
2022-08-24T22:25:45.237Z,22.58
2022-08-24T22:28:24.944Z,22.50
2022-08-24T22:31:15.730Z,22.44
2022-08-24T22:33:57.387Z,22.36
2022-08-24T22:36:36.674Z,22.29
2022-08-24T22:39:19.001Z,22.21
2022-08-24T22:41:58.371Z,22.16
2022-08-24T22:44:38.848Z,22.09
2022-08-24T22:47:19.736Z,21.99
2022-08-24T22:50:00.192Z,21.92
2022-08-24T22:52:42.815Z,21.87
2022-08-24T22:55:23.478Z,21.80
2022-08-24T22:58:05.937Z,21.70
2022-08-24T23:00:46.581Z,21.63
2022-08-24T23:03:26.381Z,21.58
2022-08-24T23:06:05.024Z,21.51
2022-08-24T23:08:46.653Z,21.45
2022-08-24T23:11:26.975Z,21.40
2022-08-24T23:14:08.936Z,21.33
2022-08-24T23:16:48.663Z,21.26
2022-08-24T23:19:44.907Z,21.18
2022-08-24T23:22:25.714Z,21.13
2022-08-24T23:25:07.291Z,21.10
2022-08-24T23:27:50.085Z,21.04
2022-08-24T23:30:32.392Z,20.98
2022-08-24T23:33:15.350Z,20.87
2022-08-24T23:35:56.541Z,20.85
2022-08-24T23:38:41.327Z,20.81
2022-08-24T23:41:21.491Z,20.76
2022-08-24T23:44:02.727Z,20.70
2022-08-24T23:46:44.491Z,20.66
2022-08-24T23:49:25.371Z,20.63
2022-08-24T23:52:05.606Z,20.59
2022-08-24T23:54:45.983Z,20.51
2022-08-24T23:57:28.484Z,20.47
